createdAt,value
2018-04-19T00:00:17.595Z,11.91
2018-04-19T00:01:17.328Z,11.85
2018-04-19T00:02:17.591Z,11.82
2018-04-19T00:03:17.569Z,11.82
2018-04-19T00:04:17.560Z,11.78
2018-04-19T00:05:17.300Z,11.82
2018-04-19T00:06:17.547Z,11.91
2018-04-19T00:07:17.547Z,11.88
2018-04-19T00:08:17.539Z,11.82
2018-04-19T00:09:17.527Z,11.8
2018-04-19T00:10:17.521Z,11.88
2018-04-19T00:11:17.268Z,11.9
2018-04-19T00:12:17.253Z,11.9
2018-04-19T00:13:17.516Z,11.88
2018-04-19T00:14:17.490Z,11.83
2018-04-19T00:15:17.235Z,11.85
2018-04-19T00:16:17.478Z,11.88
2018-04-19T00:17:17.476Z,11.86
2018-04-19T00:18:17.212Z,11.88
2018-04-19T00:19:17.460Z,11.86
2018-04-19T00:20:17.204Z,11.8
2018-04-19T00:21:17.442Z,11.75
2018-04-19T00:22:17.434Z,11.78
2018-04-19T00:23:17.428Z,11.85
2018-04-19T00:24:17.473Z,11.83
2018-04-19T00:25:17.414Z,11.86
2018-04-19T00:26:17.414Z,11.86
2018-04-19T00:27:17.155Z,11.82
2018-04-19T00:28:17.408Z,11.75
2018-04-19T00:29:17.395Z,11.76
2018-04-19T00:30:17.124Z,11.76
2018-04-19T00:31:17.385Z,11.75
2018-04-19T00:32:17.112Z,11.79
2018-04-19T00:33:17.364Z,11.79
2018-04-19T00:34:17.347Z,11.78
2018-04-19T00:35:16.844Z,11.75
2018-04-19T00:36:17.337Z,11.73
2018-04-19T00:37:17.329Z,11.67
2018-04-19T00:38:17.326Z,11.72
2018-04-19T00:39:17.070Z,11.72
2018-04-19T00:40:17.315Z,11.72
2018-04-19T00:41:17.308Z,11.69
2018-04-19T00:42:17.041Z,11.7
2018-04-19T00:43:17.287Z,11.67
2018-04-19T00:44:17.286Z,11.75
2018-04-19T00:45:17.282Z,11.73
2018-04-19T00:46:17.276Z,11.7
2018-04-19T00:47:17.003Z,11.64
2018-04-19T00:48:17.257Z,11.76
2018-04-19T00:49:17.247Z,11.69
2018-04-19T00:50:17.000Z,11.65
2018-04-19T00:51:16.975Z,11.67
2018-04-19T00:52:17.225Z,11.72
2018-04-19T00:53:17.475Z,11.75
2018-04-19T00:54:17.217Z,11.8
2018-04-19T00:55:17.201Z,11.79
2018-04-19T00:56:17.201Z,11.86
2018-04-19T00:57:17.189Z,11.79
2018-04-19T00:58:17.178Z,11.76
2018-04-19T00:59:17.170Z,11.9
2018-04-19T01:00:17.176Z,11.83
2018-04-19T01:01:17.161Z,11.79
2018-04-19T01:02:16.916Z,11.83
2018-04-19T01:03:17.143Z,11.8
2018-04-19T01:04:16.881Z,11.75
2018-04-19T01:05:17.132Z,11.82
2018-04-19T01:06:17.121Z,11.69
2018-04-19T01:07:17.115Z,11.7
2018-04-19T01:08:16.857Z,11.7
2018-04-19T01:09:17.114Z,11.73
2018-04-19T01:10:16.617Z,11.72
2018-04-19T01:11:17.084Z,11.73
2018-04-19T01:12:17.079Z,11.64
2018-04-19T01:13:16.817Z,11.64
2018-04-19T01:14:16.810Z,11.61
2018-04-19T01:15:16.802Z,11.67
2018-04-19T01:16:17.048Z,11.62
2018-04-19T01:17:17.043Z,11.65
2018-04-19T01:18:17.034Z,11.64
2018-04-19T01:19:17.034Z,11.67
2018-04-19T01:20:17.037Z,11.62
2018-04-19T01:21:16.761Z,11.62
2018-04-19T01:22:17.005Z,11.67
2018-04-19T01:23:16.753Z,11.69
2018-04-19T01:24:17.243Z,11.57
2018-04-19T01:25:16.988Z,11.51
2018-04-19T01:26:16.724Z,11.6
2018-04-19T01:27:16.968Z,11.58
2018-04-19T01:28:16.962Z,11.49
2018-04-19T01:29:16.960Z,11.51
2018-04-19T01:30:16.697Z,11.47
2018-04-19T01:31:16.946Z,11.46
2018-04-19T01:32:16.933Z,11.39
2018-04-19T01:33:16.690Z,11.52
2018-04-19T01:34:16.925Z,11.4
2018-04-19T01:35:16.912Z,11.37
2018-04-19T01:36:16.672Z,11.36
2018-04-19T01:37:16.904Z,11.47
2018-04-19T01:38:16.895Z,11.43
2018-04-19T01:39:16.892Z,11.39
2018-04-19T01:40:16.874Z,11.39
2018-04-19T01:41:16.883Z,11.4
2018-04-19T01:42:16.858Z,11.35
2018-04-19T01:43:16.871Z,11.37
2018-04-19T01:44:16.845Z,11.39
2018-04-19T01:45:16.854Z,11.29
2018-04-19T01:46:16.839Z,11.33
2018-04-19T01:47:16.573Z,11.4
2018-04-19T01:48:16.562Z,11.27
2018-04-19T01:49:16.559Z,11.32
2018-04-19T01:50:16.549Z,11.27
2018-04-19T01:51:16.795Z,11.33
2018-04-19T01:52:16.811Z,11.21
2018-04-19T01:53:16.544Z,11.33
2018-04-19T01:54:16.519Z,11.29
2018-04-19T01:55:17.019Z,11.29
2018-04-19T01:56:16.755Z,11.22
2018-04-19T01:57:16.748Z,11.22
2018-04-19T01:58:16.748Z,11.29
2018-04-19T01:59:16.733Z,11.29
2018-04-19T02:00:16.726Z,11.25
2018-04-19T02:01:16.716Z,11.35
2018-04-19T02:02:16.717Z,11.24
2018-04-19T02:03:16.713Z,11.29
2018-04-19T02:04:16.444Z,11.32
2018-04-19T02:05:16.688Z,11.27
2018-04-19T02:06:16.684Z,11.15
2018-04-19T02:07:16.505Z,11.33
2018-04-19T02:08:16.668Z,11.19
2018-04-19T02:09:16.659Z,11.22
2018-04-19T02:10:16.399Z,11.21
2018-04-19T02:11:16.646Z,11.28
2018-04-19T02:12:16.641Z,11.19
2018-04-19T02:13:16.632Z,11.32
2018-04-19T02:14:16.373Z,11.36
2018-04-19T02:15:16.624Z,11.28
2018-04-19T02:16:16.618Z,11.28
2018-04-19T02:17:16.618Z,11.29
2018-04-19T02:18:16.598Z,11.29
2018-04-19T02:19:16.839Z,11.28
2018-04-19T02:20:16.586Z,11.25
2018-04-19T02:21:16.576Z,11.28
2018-04-19T02:22:16.558Z,11.29
2018-04-19T02:23:16.559Z,11.28
2018-04-19T02:24:16.555Z,11.27
2018-04-19T02:25:16.538Z,11.17
2018-04-19T02:26:16.539Z,11.09
2018-04-19T02:27:16.527Z,11.1
2018-04-19T02:28:16.518Z,11.07
2018-04-19T02:29:16.256Z,11.09
2018-04-19T02:30:16.506Z,11.07
2018-04-19T02:31:16.251Z,11.06
2018-04-19T02:32:16.251Z,11.02
2018-04-19T02:33:16.481Z,11.09
2018-04-19T02:34:16.473Z,11.1
2018-04-19T02:35:16.468Z,11.04
2018-04-19T02:36:16.457Z,11.02
2018-04-19T02:37:16.458Z,10.96
2018-04-19T02:38:16.456Z,10.92
2018-04-19T02:39:16.440Z,11.06
2018-04-19T02:40:16.431Z,11.03
2018-04-19T02:41:16.429Z,11.02
2018-04-19T02:42:16.432Z,11.02
2018-04-19T02:43:16.149Z,11.03
2018-04-19T02:44:16.396Z,10.97
2018-04-19T02:45:16.393Z,11.02
2018-04-19T02:46:16.128Z,10.92
2018-04-19T02:47:16.126Z,10.99
2018-04-19T02:48:16.368Z,10.97
2018-04-19T02:49:16.364Z,10.96
2018-04-19T02:50:16.373Z,10.88
2018-04-19T02:51:16.343Z,10.97
2018-04-19T02:52:16.334Z,10.97
2018-04-19T02:53:16.334Z,10.92
2018-04-19T02:54:16.321Z,10.91
2018-04-19T02:55:16.313Z,10.92
2018-04-19T02:56:16.313Z,10.99
2018-04-19T02:57:16.303Z,10.85
2018-04-19T02:58:16.308Z,10.99
2018-04-19T02:59:16.284Z,10.86
2018-04-19T03:00:16.281Z,10.88
2018-04-19T03:01:16.273Z,11.02
2018-04-19T03:02:16.257Z,10.85
2018-04-19T03:03:16.251Z,10.88
2018-04-19T03:04:16.254Z,10.88
2018-04-19T03:05:15.987Z,10.91
2018-04-19T03:06:16.237Z,10.85
2018-04-19T03:07:15.979Z,10.82
2018-04-19T03:08:16.222Z,10.82
2018-04-19T03:09:16.211Z,10.88
2018-04-19T03:10:16.211Z,10.94
2018-04-19T03:11:16.191Z,10.91
2018-04-19T03:12:15.962Z,10.86
2018-04-19T03:13:16.183Z,10.86
2018-04-19T03:14:16.166Z,10.78
2018-04-19T03:15:16.165Z,10.74
2018-04-19T03:16:16.158Z,10.76
2018-04-19T03:17:16.159Z,10.84
2018-04-19T03:18:16.135Z,10.78
2018-04-19T03:19:16.132Z,10.7
2018-04-19T03:20:16.126Z,10.74
2018-04-19T03:21:15.605Z,10.73
2018-04-19T03:22:16.102Z,10.7
2018-04-19T03:23:16.097Z,10.73
2018-04-19T03:24:16.085Z,10.71
2018-04-19T03:25:16.079Z,10.76
2018-04-19T03:26:16.077Z,10.79
2018-04-19T03:27:16.074Z,10.76
2018-04-19T03:28:16.062Z,10.76
2018-04-19T03:29:16.053Z,10.71
2018-04-19T03:30:15.816Z,10.78
2018-04-19T03:31:16.037Z,10.74
2018-04-19T03:32:16.028Z,10.71
2018-04-19T03:33:16.021Z,10.73
2018-04-19T03:34:16.015Z,10.78
2018-04-19T03:35:16.015Z,10.76
2018-04-19T03:36:15.994Z,10.73
2018-04-19T03:37:15.988Z,10.78
2018-04-19T03:38:15.725Z,10.68
2018-04-19T03:39:15.974Z,10.67
2018-04-19T03:40:15.963Z,10.63
2018-04-19T03:41:15.959Z,10.78
2018-04-19T03:42:15.945Z,10.74
2018-04-19T03:43:15.962Z,10.63
2018-04-19T03:44:15.931Z,10.63
2018-04-19T03:45:15.944Z,10.6
2018-04-19T03:46:15.919Z,10.64
2018-04-19T03:47:15.912Z,10.6
2018-04-19T03:48:15.901Z,10.59
2018-04-19T03:49:15.890Z,10.6
2018-04-19T03:50:15.887Z,10.59
2018-04-19T03:51:15.876Z,10.64
2018-04-19T03:52:15.617Z,10.61
2018-04-19T03:53:15.861Z,10.64
2018-04-19T03:54:15.857Z,10.61
2018-04-19T03:55:15.848Z,10.59
2018-04-19T03:56:15.844Z,10.63
2018-04-19T03:57:15.575Z,10.59
2018-04-19T03:58:15.820Z,10.59
2018-04-19T03:59:15.821Z,10.59
2018-04-19T04:00:16.086Z,10.61
2018-04-19T04:01:16.069Z,10.66
2018-04-19T04:02:15.798Z,10.68
2018-04-19T04:03:15.530Z,10.59
2018-04-19T04:04:15.777Z,10.67
2018-04-19T04:05:15.527Z,10.71
2018-04-19T04:06:15.758Z,10.64
2018-04-19T04:07:15.748Z,10.61
2018-04-19T04:08:15.489Z,10.66
2018-04-19T04:09:15.485Z,10.66
2018-04-19T04:10:15.477Z,10.73
2018-04-19T04:11:15.723Z,10.74
2018-04-19T04:12:15.713Z,10.76
2018-04-19T04:13:15.450Z,10.79
2018-04-19T04:14:15.443Z,10.86
2018-04-19T04:15:15.701Z,10.92
2018-04-19T04:16:15.679Z,10.92
2018-04-19T04:17:15.419Z,10.85
2018-04-19T04:18:15.665Z,10.91
2018-04-19T04:19:15.406Z,10.99
2018-04-19T04:20:15.397Z,11.03
2018-04-19T04:21:15.644Z,11.14
2018-04-19T04:22:15.128Z,11.25
2018-04-19T04:23:15.121Z,11.25
2018-04-19T04:24:15.622Z,11.33
2018-04-19T04:25:15.368Z,11.29
2018-04-19T04:26:15.609Z,11.4
2018-04-19T04:27:15.596Z,11.49
2018-04-19T04:28:15.589Z,11.55
2018-04-19T04:29:15.331Z,11.7
2018-04-19T04:30:15.336Z,11.79
2018-04-19T04:31:16.108Z,11.94
2018-04-19T04:32:15.558Z,11.98
2018-04-19T04:33:15.301Z,12.1
2018-04-19T04:34:15.543Z,12.13
2018-04-19T04:35:15.623Z,12.29
2018-04-19T04:36:15.539Z,12.38
2018-04-19T04:37:15.524Z,12.49
2018-04-19T04:38:15.519Z,12.68
2018-04-19T04:39:15.517Z,12.72
2018-04-19T04:40:15.527Z,12.83
2018-04-19T04:41:15.511Z,13.04
2018-04-19T04:42:15.491Z,13.17
2018-04-19T04:43:15.240Z,13.25
2018-04-19T04:44:15.489Z,13.45
2018-04-19T04:45:15.219Z,13.52
2018-04-19T04:46:15.472Z,13.71
2018-04-19T04:47:14.956Z,13.81
2018-04-19T04:48:15.457Z,13.97
2018-04-19T04:49:15.452Z,14.24
2018-04-19T04:50:15.450Z,14.25
2018-04-19T04:51:15.187Z,14.43
2018-04-19T04:52:15.186Z,14.68
2018-04-19T04:53:15.430Z,14.84
2018-04-19T04:54:15.171Z,14.92
2018-04-19T04:55:15.423Z,15.25
2018-04-19T04:56:15.415Z,15.44
2018-04-19T04:57:15.157Z,15.57
2018-04-19T04:58:15.404Z,15.74
2018-04-19T04:59:15.400Z,15.97
2018-04-19T05:00:15.241Z,16.05
2018-04-19T05:01:15.148Z,16.25
2018-04-19T05:02:15.640Z,16.5
2018-04-19T05:03:15.131Z,16.68
2018-04-19T05:04:15.383Z,16.89
2018-04-19T05:05:15.389Z,17
2018-04-19T05:06:15.390Z,17.21
2018-04-19T05:07:15.371Z,17.4
2018-04-19T05:08:15.367Z,17.56
2018-04-19T05:09:15.365Z,17.86
2018-04-19T05:10:15.367Z,18.05
2018-04-19T05:11:15.113Z,18.25
2018-04-19T05:12:15.357Z,18.35
2018-04-19T05:13:15.362Z,18.57
2018-04-19T05:14:15.098Z,18.82
2018-04-19T05:15:15.106Z,18.99
2018-04-19T05:16:15.098Z,19.19
2018-04-19T05:17:15.352Z,19.31
2018-04-19T05:18:15.359Z,19.63
2018-04-19T05:19:15.348Z,19.91
2018-04-19T05:20:15.348Z,19.91
2018-04-19T05:21:15.342Z,20.16
2018-04-19T05:22:15.338Z,20.33
2018-04-19T05:23:15.337Z,20.52
2018-04-19T05:24:15.342Z,20.66
2018-04-19T05:25:15.335Z,20.97
2018-04-19T05:26:15.401Z,21.1
2018-04-19T05:27:15.346Z,21.17
2018-04-19T05:28:15.349Z,21.49
2018-04-19T05:29:15.336Z,21.58
2018-04-19T05:30:15.083Z,21.79
2018-04-19T05:31:15.342Z,21.9
2018-04-19T05:32:15.337Z,22.05
2018-04-19T05:33:15.344Z,22.3
2018-04-19T05:34:15.340Z,22.35
2018-04-19T05:35:15.338Z,22.46
2018-04-19T05:36:14.833Z,22.55
2018-04-19T05:37:15.544Z,22.67
2018-04-19T05:38:15.346Z,22.82
2018-04-19T05:39:15.367Z,22.97
2018-04-19T05:40:15.347Z,23.05
2018-04-19T05:41:15.104Z,23.28
2018-04-19T05:42:15.352Z,23.46
2018-04-19T05:43:15.354Z,23.66
2018-04-19T05:44:15.360Z,23.83
2018-04-19T05:45:15.360Z,23.91
2018-04-19T05:46:15.414Z,24.06
2018-04-19T05:47:15.364Z,24.1
2018-04-19T05:48:14.868Z,24.24
2018-04-19T05:49:15.390Z,24.34
2018-04-19T05:50:15.377Z,24.5
2018-04-19T05:51:15.389Z,24.62
2018-04-19T05:52:15.381Z,24.84
2018-04-19T05:53:14.885Z,24.98
2018-04-19T05:54:15.393Z,25.02
2018-04-19T05:55:15.398Z,25.14
2018-04-19T05:56:15.401Z,25.18
2018-04-19T05:57:15.427Z,25.35
2018-04-19T05:58:15.164Z,25.45
2018-04-19T05:59:15.166Z,25.62
2018-04-19T06:00:15.420Z,25.76
2018-04-19T06:01:15.203Z,25.85
2018-04-19T06:02:15.431Z,26.05
2018-04-19T06:03:15.516Z,26.07
2018-04-19T06:04:15.446Z,26.21
2018-04-19T06:05:15.453Z,26.3
2018-04-19T06:06:15.659Z,26.45
2018-04-19T06:07:15.455Z,26.58
2018-04-19T06:08:15.473Z,26.62
2018-04-19T06:09:15.469Z,26.73
2018-04-19T06:10:15.473Z,26.85
2018-04-19T06:11:15.481Z,26.77
2018-04-19T06:12:15.241Z,27.03
2018-04-19T06:13:15.494Z,27.04
2018-04-19T06:14:15.506Z,27.12
2018-04-19T06:15:15.697Z,27.28
2018-04-19T06:16:15.521Z,27.31
2018-04-19T06:17:15.527Z,27.43
2018-04-19T06:18:15.277Z,27.62
2018-04-19T06:19:15.289Z,27.69
2018-04-19T06:20:15.546Z,27.75
2018-04-19T06:21:15.549Z,27.82
2018-04-19T06:22:15.560Z,27.85
2018-04-19T06:23:15.569Z,28.07
2018-04-19T06:24:15.570Z,28.07
2018-04-19T06:25:15.595Z,28.36
2018-04-19T06:26:15.587Z,28.46
2018-04-19T06:27:15.595Z,28.54
2018-04-19T06:28:15.602Z,28.8
2018-04-19T06:29:15.690Z,28.95
2018-04-19T06:30:15.665Z,29.05
2018-04-19T06:31:15.389Z,29.16
2018-04-19T06:32:15.637Z,29.26
2018-04-19T06:33:15.654Z,29.49
2018-04-19T06:34:15.402Z,29.55
2018-04-19T06:35:15.665Z,29.71
2018-04-19T06:36:15.760Z,29.8
2018-04-19T06:37:15.432Z,29.82
2018-04-19T06:38:15.709Z,29.92
2018-04-19T06:39:15.725Z,30.04
2018-04-19T06:40:15.724Z,30.11
2018-04-19T06:41:15.723Z,30.11
2018-04-19T06:42:15.226Z,30.39
2018-04-19T06:43:15.759Z,30.49
2018-04-19T06:44:15.760Z,30.65
2018-04-19T06:45:15.764Z,30.77
2018-04-19T06:46:15.518Z,30.91
2018-04-19T06:47:15.541Z,31.02
2018-04-19T06:48:15.793Z,31.14
2018-04-19T06:49:15.802Z,31.2
2018-04-19T06:50:15.823Z,31.32
2018-04-19T06:51:15.889Z,31.36
2018-04-19T06:52:15.859Z,31.43
2018-04-19T06:53:15.852Z,31.5
2018-04-19T06:54:15.901Z,31.68
2018-04-19T06:55:15.876Z,31.75
2018-04-19T06:56:15.900Z,31.88
2018-04-19T06:57:15.899Z,31.92
2018-04-19T06:58:15.403Z,32.06
2018-04-19T06:59:15.661Z,32.14
2018-04-19T07:00:15.419Z,32.26
2018-04-19T07:01:15.941Z,32.35
2018-04-19T07:02:15.694Z,32.35
2018-04-19T07:03:15.960Z,32.35
2018-04-19T07:04:15.984Z,32.56
2018-04-19T07:05:15.995Z,32.65
2018-04-19T07:06:16.001Z,32.75
2018-04-19T07:07:16.265Z,32.69
2018-04-19T07:09:16.044Z,32.92
2018-04-19T07:11:16.055Z,33.09
2018-04-19T07:12:16.080Z,33.15
2018-04-19T07:13:15.575Z,33.12
2018-04-19T07:14:15.836Z,33.34
2018-04-19T07:15:16.112Z,33.41
2018-04-19T07:16:16.132Z,33.56
2018-04-19T07:17:16.430Z,33.53
2018-04-19T07:18:16.155Z,33.68
2018-04-19T07:19:15.902Z,33.65
2018-04-19T07:20:15.939Z,33.76
2018-04-19T07:21:15.922Z,33.81
2018-04-19T07:22:16.192Z,33.79
2018-04-19T07:23:15.951Z,33.87
2018-04-19T07:24:15.961Z,33.88
2018-04-19T07:25:15.972Z,33.88
2018-04-19T07:26:16.244Z,33.81
2018-04-19T07:27:16.265Z,33.84
2018-04-19T07:28:16.267Z,33.82
2018-04-19T07:29:16.275Z,33.88
2018-04-19T07:30:16.045Z,33.9
2018-04-19T07:31:16.316Z,33.98
2018-04-19T07:32:16.431Z,33.9
2018-04-19T07:33:16.337Z,33.88
2018-04-19T07:34:16.339Z,33.91
2018-04-19T07:35:16.354Z,33.81
2018-04-19T07:36:16.384Z,33.87
2018-04-19T07:37:16.397Z,33.95
2018-04-19T07:38:16.649Z,34.02
2018-04-19T07:39:16.423Z,33.87
2018-04-19T07:40:16.437Z,33.95
2018-04-19T07:41:16.455Z,34.03
2018-04-19T07:42:16.462Z,34.08
2018-04-19T07:43:16.527Z,34
2018-04-19T07:44:16.529Z,34.03
2018-04-19T07:45:16.543Z,34.02
2018-04-19T07:46:16.258Z,34
2018-04-19T07:47:16.562Z,33.98
2018-04-19T07:48:16.611Z,34.02
2018-04-19T07:49:16.566Z,33.91
2018-04-19T07:50:16.583Z,33.84
2018-04-19T07:51:16.603Z,33.59
2018-04-19T07:52:16.602Z,33.39
2018-04-19T07:53:16.627Z,33.42
2018-04-19T07:54:16.389Z,33.32
2018-04-19T07:55:16.420Z,33.35
2018-04-19T07:56:16.435Z,33.32
2018-04-19T07:57:16.447Z,33.34
2018-04-19T07:58:16.694Z,33.32
2018-04-19T07:59:16.725Z,33.34
2018-04-19T08:00:16.501Z,33.34
2018-04-19T08:01:16.776Z,33.29
2018-04-19T08:02:16.797Z,33.37
2018-04-19T08:03:16.786Z,33.29
2018-04-19T08:04:16.812Z,33.38
2018-04-19T08:05:16.618Z,33.49
2018-04-19T08:06:16.627Z,33.53
2018-04-19T08:07:16.846Z,33.44
2018-04-19T08:08:16.615Z,33.35
2018-04-19T08:09:17.114Z,33.34
2018-04-19T08:10:16.875Z,33.32
2018-04-19T08:11:17.006Z,33.14
2018-04-19T08:12:16.910Z,32.89
2018-04-19T08:13:16.930Z,32.78
2018-04-19T08:14:16.957Z,32.75
2018-04-19T08:15:16.697Z,32.67
2018-04-19T08:16:16.726Z,32.65
2018-04-19T08:17:16.726Z,32.62
2018-04-19T08:18:16.737Z,32.51
2018-04-19T08:19:17.006Z,32.55
2018-04-19T08:20:16.755Z,32.47
2018-04-19T08:21:16.770Z,32.22
2018-04-19T08:22:17.137Z,32.14
2018-04-19T08:23:17.064Z,31.95
2018-04-19T08:24:17.079Z,31.73
2018-04-19T08:25:16.825Z,31.62
2018-04-19T08:26:17.118Z,31.41
2018-04-19T08:27:16.852Z,31.21
2018-04-19T08:28:17.163Z,31.04
2018-04-19T08:29:17.149Z,30.75
2018-04-19T08:30:17.140Z,30.61
2018-04-19T08:31:17.148Z,30.24
2018-04-19T08:32:17.184Z,29.89
2018-04-19T08:33:17.194Z,29.65
2018-04-19T08:34:17.227Z,29.45
2018-04-19T08:35:17.196Z,29.26
2018-04-19T08:36:17.217Z,29
2018-04-19T08:37:17.001Z,28.86
2018-04-19T08:38:17.234Z,28.56
2018-04-19T08:39:16.996Z,28.48
2018-04-19T08:40:17.285Z,28.19
2018-04-19T08:41:17.260Z,28.04
2018-04-19T08:42:17.313Z,27.78
2018-04-19T08:43:18.563Z,27.66
2018-04-19T08:44:17.386Z,27.4
2018-04-19T08:45:17.327Z,27.03
2018-04-19T08:46:17.334Z,26.95
2018-04-19T08:47:17.299Z,26.8
2018-04-19T08:48:17.325Z,26.6
2018-04-19T08:49:17.404Z,26.45
2018-04-19T08:50:17.393Z,26.32
2018-04-19T08:51:17.101Z,26.13
2018-04-19T08:52:17.341Z,26.01
2018-04-19T08:53:17.351Z,25.91
2018-04-19T08:54:17.344Z,25.8
2018-04-19T08:55:17.353Z,25.79
2018-04-19T08:56:17.391Z,25.61
2018-04-19T08:57:17.104Z,25.57
2018-04-19T08:58:17.370Z,25.45
2018-04-19T08:59:17.112Z,25.42
2018-04-19T09:00:17.386Z,25.4
2018-04-19T09:01:17.379Z,25.38
2018-04-19T09:02:17.397Z,25.21
2018-04-19T09:03:17.388Z,25.15
2018-04-19T09:04:17.415Z,25.15
2018-04-19T09:05:17.389Z,25.08
2018-04-19T09:06:17.402Z,25.03
2018-04-19T09:07:17.144Z,24.95
2018-04-19T09:08:17.401Z,24.91
2018-04-19T09:09:17.402Z,24.8
2018-04-19T09:10:17.416Z,24.71
2018-04-19T09:11:17.434Z,24.73
2018-04-19T09:12:17.414Z,24.67
2018-04-19T09:13:17.417Z,24.67
2018-04-19T09:14:17.428Z,24.65
2018-04-19T09:15:17.435Z,24.6
2018-04-19T09:16:17.432Z,24.52
2018-04-19T09:17:17.445Z,24.49
2018-04-19T09:18:17.430Z,24.47
2018-04-19T09:19:17.433Z,24.42
2018-04-19T09:20:17.450Z,24.35
2018-04-19T09:21:17.199Z,24.31
2018-04-19T09:22:17.443Z,24.27
2018-04-19T09:23:17.203Z,24.3
2018-04-19T09:24:17.478Z,24.22
2018-04-19T09:25:17.452Z,24.28
2018-04-19T09:26:17.469Z,24.31
2018-04-19T09:27:17.465Z,24.3
2018-04-19T09:28:17.481Z,24.39
2018-04-19T09:29:17.209Z,24.4
2018-04-19T09:30:17.473Z,24.34
2018-04-19T09:31:17.477Z,24.39
2018-04-19T09:32:17.691Z,24.32
2018-04-19T09:33:17.477Z,24.31
2018-04-19T09:34:17.326Z,24.34
2018-04-19T09:35:17.235Z,24.35
2018-04-19T09:36:17.532Z,24.46
2018-04-19T09:37:17.252Z,24.49
2018-04-19T09:38:17.503Z,24.52
2018-04-19T09:39:17.523Z,24.47
2018-04-19T09:40:17.508Z,24.49
2018-04-19T09:41:17.492Z,24.42
2018-04-19T09:42:17.499Z,24.47
2018-04-19T09:43:17.497Z,24.39
2018-04-19T09:44:17.492Z,24.42
2018-04-19T09:45:17.495Z,24.43
2018-04-19T09:46:17.497Z,24.5
2018-04-19T09:47:17.508Z,24.46
2018-04-19T09:48:17.511Z,24.5
2018-04-19T09:49:17.513Z,24.52
2018-04-19T09:50:17.524Z,24.52
2018-04-19T09:51:17.518Z,24.52
2018-04-19T09:52:17.514Z,24.61
2018-04-19T09:53:17.530Z,24.55
2018-04-19T09:54:17.979Z,24.6
2018-04-19T09:55:17.535Z,24.57
2018-04-19T09:56:17.271Z,24.53
2018-04-19T09:57:17.015Z,24.47
2018-04-19T09:58:17.298Z,24.61
2018-04-19T09:59:17.738Z,24.64
2018-04-19T10:00:17.022Z,24.61
2018-04-19T10:01:17.560Z,24.6
2018-04-19T10:02:17.582Z,24.53
2018-04-19T10:03:17.562Z,24.64
2018-04-19T10:04:17.390Z,24.61
2018-04-19T10:05:17.539Z,24.67
2018-04-19T10:06:17.298Z,24.73
2018-04-19T10:07:17.547Z,24.68
2018-04-19T10:08:17.304Z,24.78
2018-04-19T10:09:17.292Z,24.77
2018-04-19T10:10:17.601Z,24.73
2018-04-19T10:11:17.570Z,24.76
2018-04-19T10:12:17.990Z,24.76
2018-04-19T10:13:17.555Z,24.8
2018-04-19T10:14:17.591Z,24.84
2018-04-19T10:15:17.310Z,24.81
2018-04-19T10:16:17.573Z,24.77
2018-04-19T10:17:17.583Z,24.73
2018-04-19T10:18:17.569Z,24.76
2018-04-19T10:19:17.572Z,24.68
2018-04-19T10:20:17.575Z,24.68
2018-04-19T10:21:17.373Z,24.73
2018-04-19T10:22:17.325Z,24.76
2018-04-19T10:23:17.590Z,24.69
2018-04-19T10:24:17.605Z,24.62
2018-04-19T10:25:17.587Z,24.69
2018-04-19T10:26:17.588Z,24.67
2018-04-19T10:27:17.632Z,24.73
2018-04-19T10:28:17.601Z,24.71
2018-04-19T10:29:17.600Z,24.68
2018-04-19T10:30:17.345Z,24.71
2018-04-19T10:31:17.341Z,24.67
2018-04-19T10:32:17.600Z,24.65
2018-04-19T10:33:17.597Z,24.64
2018-04-19T10:34:17.355Z,24.6
2018-04-19T10:35:17.601Z,24.68
2018-04-19T10:36:17.608Z,24.71
2018-04-19T10:37:17.612Z,24.73
2018-04-19T10:38:17.614Z,24.68
2018-04-19T10:39:17.367Z,24.65
2018-04-19T10:40:17.616Z,24.67
2018-04-19T10:41:17.737Z,24.71
2018-04-19T10:42:17.392Z,24.61
2018-04-19T10:43:17.369Z,24.76
2018-04-19T10:44:17.631Z,24.76
2018-04-19T10:45:17.378Z,24.73
2018-04-19T10:46:17.623Z,24.76
2018-04-19T10:47:17.372Z,24.71
2018-04-19T10:48:17.635Z,24.68
2018-04-19T10:49:17.630Z,24.64
2018-04-19T10:50:17.393Z,24.62
2018-04-19T10:51:17.638Z,24.49
2018-04-19T10:52:17.646Z,24.43
2018-04-19T10:53:17.649Z,24.35
2018-04-19T10:54:17.690Z,24.34
2018-04-19T10:55:17.644Z,24.32
2018-04-19T10:56:17.665Z,24.3
2018-04-19T10:57:17.649Z,24.37
2018-04-19T10:58:17.657Z,24.32
2018-04-19T10:59:17.664Z,24.34
2018-04-19T11:00:17.666Z,24.3
2018-04-19T11:01:17.441Z,24.35
2018-04-19T11:02:17.410Z,24.35
2018-04-19T11:03:17.675Z,24.39
2018-04-19T11:04:17.662Z,24.4
2018-04-19T11:05:17.684Z,24.47
2018-04-19T11:06:17.674Z,24.34
2018-04-19T11:07:17.665Z,24.35
2018-04-19T11:08:17.674Z,24.32
2018-04-19T11:09:17.694Z,24.32
2018-04-19T11:10:17.788Z,24.34
2018-04-19T11:11:17.672Z,24.39
2018-04-19T11:12:17.418Z,24.35
2018-04-19T11:13:17.672Z,24.4
2018-04-19T11:14:17.688Z,24.37
2018-04-19T11:15:17.679Z,24.45
2018-04-19T11:16:17.688Z,24.37
2018-04-19T11:17:17.687Z,24.46
2018-04-19T11:18:17.681Z,24.4
2018-04-19T11:19:17.442Z,24.39
2018-04-19T11:20:17.444Z,24.42
2018-04-19T11:21:17.708Z,24.42
2018-04-19T11:22:17.444Z,24.47
2018-04-19T11:23:17.711Z,24.4
2018-04-19T11:24:17.441Z,24.43
2018-04-19T11:25:17.697Z,24.43
2018-04-19T11:26:17.706Z,24.43
2018-04-19T11:27:17.725Z,24.49
2018-04-19T11:28:17.708Z,24.52
2018-04-19T11:29:17.736Z,24.53
2018-04-19T11:30:17.923Z,24.52
2018-04-19T11:31:17.735Z,24.52
2018-04-19T11:32:17.501Z,24.5
2018-04-19T11:33:17.476Z,24.57
2018-04-19T11:34:17.733Z,24.52
2018-04-19T11:35:17.464Z,24.43
2018-04-19T11:36:17.482Z,24.42
2018-04-19T11:37:17.722Z,24.4
2018-04-19T11:38:17.459Z,24.35
2018-04-19T11:39:17.730Z,24.35
2018-04-19T11:40:17.210Z,24.43
2018-04-19T11:41:17.788Z,24.45
2018-04-19T11:42:17.738Z,24.58
2018-04-19T11:43:17.729Z,24.5
2018-04-19T11:44:17.730Z,24.61
2018-04-19T11:45:17.730Z,24.68
2018-04-19T11:46:17.737Z,24.73
2018-04-19T11:47:17.803Z,24.77
2018-04-19T11:48:17.732Z,24.71
2018-04-19T11:49:17.733Z,24.73
2018-04-19T11:50:17.226Z,24.76
2018-04-19T11:51:17.492Z,24.73
2018-04-19T11:52:17.735Z,24.73
2018-04-19T11:53:17.485Z,24.71
2018-04-19T11:54:17.493Z,24.71
2018-04-19T11:55:17.241Z,24.76
2018-04-19T11:56:17.495Z,24.76
2018-04-19T11:57:17.752Z,24.76
2018-04-19T11:58:17.497Z,24.8
2018-04-19T11:59:17.250Z,24.71
2018-04-19T12:00:17.755Z,24.73
2018-04-19T12:01:17.886Z,24.68
2018-04-19T12:02:17.594Z,24.71
2018-04-19T12:03:17.524Z,24.64
2018-04-19T12:04:17.773Z,24.73
2018-04-19T12:05:17.761Z,24.73
2018-04-19T12:06:17.519Z,24.76
2018-04-19T12:07:17.828Z,24.76
2018-04-19T12:08:17.790Z,24.81
2018-04-19T12:09:17.794Z,24.85
2018-04-19T12:10:17.525Z,24.88
2018-04-19T12:11:17.771Z,24.81
2018-04-19T12:12:17.770Z,24.84
2018-04-19T12:13:17.786Z,24.84
2018-04-19T12:14:17.779Z,24.84
2018-04-19T12:15:17.521Z,24.83
2018-04-19T12:16:17.788Z,24.88
2018-04-19T12:17:17.794Z,24.95
2018-04-19T12:18:17.797Z,24.95
2018-04-19T12:19:17.945Z,24.95
2018-04-19T12:20:17.787Z,25.05
2018-04-19T12:21:17.552Z,25.18
2018-04-19T12:22:17.789Z,25.2
2018-04-19T12:23:17.535Z,25.21
2018-04-19T12:24:17.536Z,25.23
2018-04-19T12:25:17.555Z,25.32
2018-04-19T12:26:17.826Z,25.32
2018-04-19T12:27:17.548Z,25.32
2018-04-19T12:28:17.814Z,25.2
2018-04-19T12:29:17.799Z,25.13
2018-04-19T12:30:17.560Z,25.2
2018-04-19T12:31:17.805Z,25.1
2018-04-19T12:32:17.551Z,25.14
2018-04-19T12:33:17.825Z,25.14
2018-04-19T12:34:17.806Z,25.2
2018-04-19T12:35:17.812Z,25.18
2018-04-19T12:36:17.819Z,25.14
2018-04-19T12:37:17.840Z,25.17
2018-04-19T12:38:17.827Z,25.15
2018-04-19T12:39:17.818Z,25.13
2018-04-19T12:40:17.566Z,25.06
2018-04-19T12:41:17.582Z,25.02
2018-04-19T12:42:17.823Z,25.02
2018-04-19T12:43:17.831Z,25.02
2018-04-19T12:44:17.834Z,25.1
2018-04-19T12:45:17.832Z,25.13
2018-04-19T12:46:17.580Z,25.1
2018-04-19T12:47:17.840Z,25.14
2018-04-19T12:48:17.585Z,25.15
2018-04-19T12:49:17.851Z,25.13
2018-04-19T12:50:17.855Z,25.24
2018-04-19T12:51:17.869Z,25.2
2018-04-19T12:52:17.590Z,25.27
2018-04-19T12:53:17.850Z,25.21
2018-04-19T12:54:17.896Z,25.13
2018-04-19T12:55:17.614Z,25.21
2018-04-19T12:56:17.876Z,25.27
2018-04-19T12:57:17.872Z,25.2